sensor_id;sensor_type;location;lat;lon;timestamp;P1;durP1;ratioP1;P2;durP2;ratioP2
37495;SDS011;23346;52.088;4.746;2022-07-24T00:00:25;33.13;;;26.25;;
37495;SDS011;23346;52.088;4.746;2022-07-24T00:02:51;32.28;;;26.20;;
37495;SDS011;23346;52.088;4.746;2022-07-24T00:05:17;36.08;;;27.17;;
37495;SDS011;23346;52.088;4.746;2022-07-24T00:07:43;38.55;;;25.98;;
37495;SDS011;23346;52.088;4.746;2022-07-24T00:10:09;36.10;;;26.77;;
37495;SDS011;23346;52.088;4.746;2022-07-24T00:12:36;30.52;;;26.25;;
37495;SDS011;23346;52.088;4.746;2022-07-24T00:15:02;37.85;;;26.77;;
37495;SDS011;23346;52.088;4.746;2022-07-24T00:17:28;34.88;;;26.13;;
37495;SDS011;23346;52.088;4.746;2022-07-24T00:19:54;37.55;;;26.30;;
37495;SDS011;23346;52.088;4.746;2022-07-24T00:22:20;34.55;;;26.63;;
37495;SDS011;23346;52.088;4.746;2022-07-24T00:24:48;42.58;;;30.90;;
37495;SDS011;23346;52.088;4.746;2022-07-24T00:27:14;44.57;;;31.73;;
37495;SDS011;23346;52.088;4.746;2022-07-24T00:29:40;52.08;;;34.20;;
37495;SDS011;23346;52.088;4.746;2022-07-24T00:32:06;49.42;;;34.05;;
37495;SDS011;23346;52.088;4.746;2022-07-24T00:34:32;46.20;;;34.53;;
37495;SDS011;23346;52.088;4.746;2022-07-24T00:36:58;63.60;;;40.45;;
37495;SDS011;23346;52.088;4.746;2022-07-24T00:39:24;53.20;;;39.20;;
37495;SDS011;23346;52.088;4.746;2022-07-24T00:41:50;51.10;;;34.72;;
37495;SDS011;23346;52.088;4.746;2022-07-24T00:44:19;56.13;;;39.42;;
37495;SDS011;23346;52.088;4.746;2022-07-24T00:46:46;56.30;;;38.63;;
37495;SDS011;23346;52.088;4.746;2022-07-24T00:49:14;53.17;;;38.30;;
37495;SDS011;23346;52.088;4.746;2022-07-24T00:51:41;53.92;;;37.10;;
37495;SDS011;23346;52.088;4.746;2022-07-24T00:54:08;55.88;;;36.97;;
37495;SDS011;23346;52.088;4.746;2022-07-24T00:56:35;48.67;;;35.38;;
37495;SDS011;23346;52.088;4.746;2022-07-24T00:59:01;45.83;;;35.15;;
37495;SDS011;23346;52.088;4.746;2022-07-24T01:01:27;51.87;;;36.20;;
37495;SDS011;23346;52.088;4.746;2022-07-24T01:03:53;52.63;;;37.28;;
37495;SDS011;23346;52.088;4.746;2022-07-24T01:06:19;59.45;;;40.55;;
37495;SDS011;23346;52.088;4.746;2022-07-24T01:08:46;56.42;;;39.63;;
37495;SDS011;23346;52.088;4.746;2022-07-24T01:11:12;59.70;;;39.95;;
37495;SDS011;23346;52.088;4.746;2022-07-24T01:13:39;56.33;;;40.40;;
37495;SDS011;23346;52.088;4.746;2022-07-24T01:16:05;59.50;;;41.15;;
37495;SDS011;23346;52.088;4.746;2022-07-24T01:18:31;63.03;;;44.47;;
37495;SDS011;23346;52.088;4.746;2022-07-24T01:20:57;65.63;;;45.97;;
37495;SDS011;23346;52.088;4.746;2022-07-24T01:23:23;70.00;;;46.40;;
37495;SDS011;23346;52.088;4.746;2022-07-24T01:25:50;73.87;;;49.63;;
37495;SDS011;23346;52.088;4.746;2022-07-24T01:28:16;76.53;;;49.17;;
37495;SDS011;23346;52.088;4.746;2022-07-24T01:30:42;78.93;;;50.97;;
37495;SDS011;23346;52.088;4.746;2022-07-24T01:33:09;76.43;;;50.90;;
37495;SDS011;23346;52.088;4.746;2022-07-24T01:35:35;78.60;;;50.27;;
37495;SDS011;23346;52.088;4.746;2022-07-24T01:38:01;85.35;;;51.95;;
37495;SDS011;23346;52.088;4.746;2022-07-24T01:40:27;74.17;;;48.93;;
37495;SDS011;23346;52.088;4.746;2022-07-24T01:42:53;84.10;;;51.67;;
37495;SDS011;23346;52.088;4.746;2022-07-24T01:45:19;76.43;;;50.40;;
37495;SDS011;23346;52.088;4.746;2022-07-24T01:47:45;80.27;;;49.13;;
37495;SDS011;23346;52.088;4.746;2022-07-24T01:50:12;80.87;;;49.57;;
37495;SDS011;23346;52.088;4.746;2022-07-24T01:52:38;79.73;;;47.80;;
37495;SDS011;23346;52.088;4.746;2022-07-24T01:55:04;77.83;;;47.17;;
37495;SDS011;23346;52.088;4.746;2022-07-24T01:57:31;78.00;;;45.37;;
37495;SDS011;23346;52.088;4.746;2022-07-24T01:59:59;72.20;;;44.87;;
37495;SDS011;23346;52.088;4.746;2022-07-24T02:02:26;81.50;;;45.07;;
37495;SDS011;23346;52.088;4.746;2022-07-24T02:04:52;76.43;;;43.42;;
37495;SDS011;23346;52.088;4.746;2022-07-24T02:07:18;73.47;;;45.20;;
37495;SDS011;23346;52.088;4.746;2022-07-24T02:09:44;71.82;;;41.90;;
37495;SDS011;23346;52.088;4.746;2022-07-24T02:12:10;73.27;;;41.43;;
37495;SDS011;23346;52.088;4.746;2022-07-24T02:14:36;69.83;;;41.57;;
37495;SDS011;23346;52.088;4.746;2022-07-24T02:17:02;72.05;;;41.97;;
37495;SDS011;23346;52.088;4.746;2022-07-24T02:19:29;72.30;;;42.93;;
37495;SDS011;23346;52.088;4.746;2022-07-24T02:21:55;84.20;;;45.80;;
37495;SDS011;23346;52.088;4.746;2022-07-24T02:24:21;69.50;;;42.73;;
37495;SDS011;23346;52.088;4.746;2022-07-24T02:26:48;77.33;;;43.43;;
37495;SDS011;23346;52.088;4.746;2022-07-24T02:29:14;80.33;;;43.77;;
37495;SDS011;23346;52.088;4.746;2022-07-24T02:31:40;82.73;;;45.23;;
37495;SDS011;23346;52.088;4.746;2022-07-24T02:34:06;77.50;;;46.27;;
37495;SDS011;23346;52.088;4.746;2022-07-24T02:36:32;81.37;;;44.87;;
37495;SDS011;23346;52.088;4.746;2022-07-24T02:38:59;75.63;;;45.30;;
37495;SDS011;23346;52.088;4.746;2022-07-24T02:41:25;77.60;;;42.97;;
37495;SDS011;23346;52.088;4.746;2022-07-24T02:43:51;80.10;;;44.63;;
37495;SDS011;23346;52.088;4.746;2022-07-24T02:46:17;78.97;;;43.07;;
37495;SDS011;23346;52.088;4.746;2022-07-24T02:48:43;83.07;;;44.77;;
37495;SDS011;23346;52.088;4.746;2022-07-24T02:51:08;79.10;;;43.33;;
37495;SDS011;23346;52.088;4.746;2022-07-24T02:53:35;71.83;;;41.03;;
37495;SDS011;23346;52.088;4.746;2022-07-24T02:56:01;69.17;;;38.87;;
37495;SDS011;23346;52.088;4.746;2022-07-24T02:58:27;59.13;;;36.33;;
37495;SDS011;23346;52.088;4.746;2022-07-24T03:00:53;79.63;;;36.97;;
37495;SDS011;23346;52.088;4.746;2022-07-24T03:03:19;64.60;;;34.90;;
37495;SDS011;23346;52.088;4.746;2022-07-24T03:05:45;53.80;;;31.47;;
37495;SDS011;23346;52.088;4.746;2022-07-24T03:08:11;60.73;;;33.77;;
37495;SDS011;23346;52.088;4.746;2022-07-24T03:10:37;57.45;;;32.55;;
37495;SDS011;23346;52.088;4.746;2022-07-24T03:13:03;48.93;;;29.70;;
37495;SDS011;23346;52.088;4.746;2022-07-24T03:15:30;48.05;;;28.70;;
37495;SDS011;23346;52.088;4.746;2022-07-24T03:17:56;44.63;;;27.53;;
37495;SDS011;23346;52.088;4.746;2022-07-24T03:20:23;49.43;;;26.53;;
37495;SDS011;23346;52.088;4.746;2022-07-24T03:22:50;44.77;;;26.07;;
37495;SDS011;23346;52.088;4.746;2022-07-24T03:25:16;37.03;;;23.10;;
37495;SDS011;23346;52.088;4.746;2022-07-24T03:27:42;38.50;;;22.80;;
37495;SDS011;23346;52.088;4.746;2022-07-24T03:30:09;39.07;;;22.00;;
37495;SDS011;23346;52.088;4.746;2022-07-24T03:32:35;41.33;;;22.42;;
37495;SDS011;23346;52.088;4.746;2022-07-24T03:35:01;37.90;;;21.73;;
37495;SDS011;23346;52.088;4.746;2022-07-24T03:37:27;38.33;;;19.70;;
37495;SDS011;23346;52.088;4.746;2022-07-24T03:39:54;38.17;;;20.77;;
37495;SDS011;23346;52.088;4.746;2022-07-24T03:42:20;37.55;;;19.42;;
37495;SDS011;23346;52.088;4.746;2022-07-24T03:44:46;34.20;;;17.57;;
37495;SDS011;23346;52.088;4.746;2022-07-24T03:47:12;28.43;;;18.27;;
37495;SDS011;23346;52.088;4.746;2022-07-24T03:49:38;28.07;;;17.57;;
37495;SDS011;23346;52.088;4.746;2022-07-24T03:52:04;29.37;;;17.17;;
37495;SDS011;23346;52.088;4.746;2022-07-24T03:54:30;23.55;;;14.65;;
37495;SDS011;23346;52.088;4.746;2022-07-24T03:56:56;24.17;;;16.67;;
37495;SDS011;23346;52.088;4.746;2022-07-24T03:59:22;25.60;;;15.97;;
37495;SDS011;23346;52.088;4.746;2022-07-24T04:01:48;21.73;;;15.33;;
37495;SDS011;23346;52.088;4.746;2022-07-24T04:04:14;22.30;;;14.67;;
37495;SDS011;23346;52.088;4.746;2022-07-24T04:06:40;27.60;;;14.95;;
37495;SDS011;23346;52.088;4.746;2022-07-24T04:09:07;21.58;;;13.20;;
37495;SDS011;23346;52.088;4.746;2022-07-24T04:11:33;25.42;;;14.13;;
37495;SDS011;23346;52.088;4.746;2022-07-24T04:13:59;25.50;;;15.13;;
37495;SDS011;23346;52.088;4.746;2022-07-24T04:16:26;21.05;;;14.20;;
37495;SDS011;23346;52.088;4.746;2022-07-24T04:18:52;17.70;;;12.60;;
37495;SDS011;23346;52.088;4.746;2022-07-24T04:21:18;23.08;;;13.57;;
37495;SDS011;23346;52.088;4.746;2022-07-24T04:23:44;26.07;;;12.10;;
37495;SDS011;23346;52.088;4.746;2022-07-24T04:26:10;19.58;;;11.23;;
37495;SDS011;23346;52.088;4.746;2022-07-24T04:28:36;18.77;;;11.55;;
37495;SDS011;23346;52.088;4.746;2022-07-24T04:31:02;18.13;;;10.87;;
37495;SDS011;23346;52.088;4.746;2022-07-24T04:33:28;18.95;;;10.68;;
37495;SDS011;23346;52.088;4.746;2022-07-24T04:35:54;19.15;;;10.80;;
37495;SDS011;23346;52.088;4.746;2022-07-24T04:38:20;19.70;;;9.80;;
37495;SDS011;23346;52.088;4.746;2022-07-24T04:40:46;16.10;;;9.77;;
37495;SDS011;23346;52.088;4.746;2022-07-24T04:43:12;14.82;;;9.02;;
37495;SDS011;23346;52.088;4.746;2022-07-24T04:45:38;13.80;;;9.00;;
37495;SDS011;23346;52.088;4.746;2022-07-24T04:48:05;16.15;;;8.38;;
37495;SDS011;23346;52.088;4.746;2022-07-24T04:50:31;20.25;;;9.20;;
37495;SDS011;23346;52.088;4.746;2022-07-24T04:52:57;16.20;;;8.38;;
37495;SDS011;23346;52.088;4.746;2022-07-24T04:55:23;15.45;;;7.82;;
37495;SDS011;23346;52.088;4.746;2022-07-24T04:57:49;11.85;;;6.90;;
37495;SDS011;23346;52.088;4.746;2022-07-24T05:00:15;12.57;;;7.20;;
37495;SDS011;23346;52.088;4.746;2022-07-24T05:02:41;10.85;;;6.50;;
37495;SDS011;23346;52.088;4.746;2022-07-24T05:05:07;9.18;;;6.53;;
37495;SDS011;23346;52.088;4.746;2022-07-24T05:07:33;12.60;;;6.60;;
37495;SDS011;23346;52.088;4.746;2022-07-24T05:09:59;10.95;;;6.50;;
37495;SDS011;23346;52.088;4.746;2022-07-24T05:12:25;16.00;;;7.30;;
37495;SDS011;23346;52.088;4.746;2022-07-24T05:14:52;14.57;;;7.20;;
37495;SDS011;23346;52.088;4.746;2022-07-24T05:17:18;11.27;;;7.30;;
37495;SDS011;23346;52.088;4.746;2022-07-24T05:19:44;9.98;;;7.30;;
37495;SDS011;23346;52.088;4.746;2022-07-24T05:22:10;10.40;;;7.00;;
37495;SDS011;23346;52.088;4.746;2022-07-24T05:24:36;10.18;;;7.05;;
37495;SDS011;23346;52.088;4.746;2022-07-24T05:27:02;10.27;;;7.35;;
37495;SDS011;23346;52.088;4.746;2022-07-24T05:29:28;14.60;;;6.80;;
37495;SDS011;23346;52.088;4.746;2022-07-24T05:31:54;12.07;;;7.00;;
37495;SDS011;23346;52.088;4.746;2022-07-24T05:34:20;9.40;;;6.85;;
37495;SDS011;23346;52.088;4.746;2022-07-24T05:36:46;12.13;;;7.20;;
37495;SDS011;23346;52.088;4.746;2022-07-24T05:39:12;10.73;;;6.82;;
37495;SDS011;23346;52.088;4.746;2022-07-24T05:41:38;13.05;;;7.72;;
37495;SDS011;23346;52.088;4.746;2022-07-24T05:44:04;14.98;;;7.28;;
37495;SDS011;23346;52.088;4.746;2022-07-24T05:46:30;15.00;;;7.65;;
37495;SDS011;23346;52.088;4.746;2022-07-24T05:48:56;11.05;;;8.07;;
37495;SDS011;23346;52.088;4.746;2022-07-24T05:51:22;12.63;;;7.25;;
37495;SDS011;23346;52.088;4.746;2022-07-24T05:53:48;12.35;;;7.78;;
37495;SDS011;23346;52.088;4.746;2022-07-24T05:56:14;14.07;;;8.13;;
37495;SDS011;23346;52.088;4.746;2022-07-24T05:58:40;9.38;;;8.10;;
37495;SDS011;23346;52.088;4.746;2022-07-24T06:01:06;9.15;;;6.38;;
37495;SDS011;23346;52.088;4.746;2022-07-24T06:03:32;10.13;;;6.82;;
37495;SDS011;23346;52.088;4.746;2022-07-24T06:05:58;11.27;;;6.53;;
37495;SDS011;23346;52.088;4.746;2022-07-24T06:08:25;12.52;;;6.88;;
37495;SDS011;23346;52.088;4.746;2022-07-24T06:10:51;8.85;;;5.95;;
37495;SDS011;23346;52.088;4.746;2022-07-24T06:13:17;13.95;;;5.75;;
37495;SDS011;23346;52.088;4.746;2022-07-24T06:15:43;7.95;;;5.15;;
37495;SDS011;23346;52.088;4.746;2022-07-24T06:18:09;6.40;;;4.18;;
37495;SDS011;23346;52.088;4.746;2022-07-24T06:20:35;11.65;;;4.78;;
37495;SDS011;23346;52.088;4.746;2022-07-24T06:23:01;7.35;;;3.72;;
37495;SDS011;23346;52.088;4.746;2022-07-24T06:25:27;8.45;;;3.40;;
37495;SDS011;23346;52.088;4.746;2022-07-24T06:27:53;10.35;;;3.60;;
37495;SDS011;23346;52.088;4.746;2022-07-24T06:30:22;8.85;;;3.63;;
37495;SDS011;23346;52.088;4.746;2022-07-24T06:32:49;4.78;;;3.00;;
37495;SDS011;23346;52.088;4.746;2022-07-24T06:35:15;4.35;;;3.15;;
37495;SDS011;23346;52.088;4.746;2022-07-24T06:37:41;10.55;;;3.03;;
37495;SDS011;23346;52.088;4.746;2022-07-24T06:40:08;8.68;;;3.03;;
37495;SDS011;23346;52.088;4.746;2022-07-24T06:42:34;6.68;;;3.13;;
37495;SDS011;23346;52.088;4.746;2022-07-24T06:45:00;5.63;;;2.88;;
37495;SDS011;23346;52.088;4.746;2022-07-24T06:47:26;4.00;;;2.90;;
37495;SDS011;23346;52.088;4.746;2022-07-24T06:49:55;4.63;;;2.30;;
37495;SDS011;23346;52.088;4.746;2022-07-24T06:52:21;4.50;;;2.30;;
37495;SDS011;23346;52.088;4.746;2022-07-24T06:54:48;6.60;;;2.30;;
37495;SDS011;23346;52.088;4.746;2022-07-24T06:57:14;9.63;;;2.20;;
37495;SDS011;23346;52.088;4.746;2022-07-24T06:59:41;4.05;;;2.08;;
37495;SDS011;23346;52.088;4.746;2022-07-24T07:02:07;4.85;;;2.10;;
37495;SDS011;23346;52.088;4.746;2022-07-24T07:04:33;3.28;;;2.22;;
37495;SDS011;23346;52.088;4.746;2022-07-24T07:06:59;3.05;;;2.10;;
37495;SDS011;23346;52.088;4.746;2022-07-24T07:09:25;4.28;;;2.58;;
37495;SDS011;23346;52.088;4.746;2022-07-24T07:11:51;4.15;;;2.17;;
37495;SDS011;23346;52.088;4.746;2022-07-24T07:14:18;2.63;;;2.10;;
37495;SDS011;23346;52.088;4.746;2022-07-24T07:16:44;3.85;;;2.30;;
37495;SDS011;23346;52.088;4.746;2022-07-24T07:19:10;3.42;;;1.92;;
37495;SDS011;23346;52.088;4.746;2022-07-24T07:21:36;3.35;;;1.70;;
37495;SDS011;23346;52.088;4.746;2022-07-24T07:24:02;5.47;;;1.88;;
37495;SDS011;23346;52.088;4.746;2022-07-24T07:26:28;2.92;;;1.80;;
37495;SDS011;23346;52.088;4.746;2022-07-24T07:28:55;2.50;;;1.77;;
37495;SDS011;23346;52.088;4.746;2022-07-24T07:31:21;3.20;;;2.15;;
37495;SDS011;23346;52.088;4.746;2022-07-24T07:33:49;4.20;;;2.08;;
37495;SDS011;23346;52.088;4.746;2022-07-24T07:36:15;5.40;;;1.92;;
37495;SDS011;23346;52.088;4.746;2022-07-24T07:38:41;2.30;;;1.75;;
37495;SDS011;23346;52.088;4.746;2022-07-24T07:41:07;2.92;;;1.83;;
37495;SDS011;23346;52.088;4.746;2022-07-24T07:43:33;3.38;;;2.00;;
37495;SDS011;23346;52.088;4.746;2022-07-24T07:45:59;4.00;;;2.03;;
37495;SDS011;23346;52.088;4.746;2022-07-24T07:48:25;5.53;;;1.60;;
37495;SDS011;23346;52.088;4.746;2022-07-24T07:50:52;4.45;;;1.80;;
37495;SDS011;23346;52.088;4.746;2022-07-24T07:53:18;4.55;;;2.13;;
37495;SDS011;23346;52.088;4.746;2022-07-24T07:55:44;4.65;;;1.50;;
37495;SDS011;23346;52.088;4.746;2022-07-24T07:58:13;2.08;;;1.58;;
37495;SDS011;23346;52.088;4.746;2022-07-24T08:00:40;4.32;;;2.15;;
37495;SDS011;23346;52.088;4.746;2022-07-24T08:03:06;2.42;;;1.45;;
37495;SDS011;23346;52.088;4.746;2022-07-24T08:05:32;2.33;;;1.70;;
37495;SDS011;23346;52.088;4.746;2022-07-24T08:07:58;2.53;;;1.50;;
37495;SDS011;23346;52.088;4.746;2022-07-24T08:10:24;3.28;;;1.63;;
37495;SDS011;23346;52.088;4.746;2022-07-24T08:12:50;3.60;;;1.98;;
37495;SDS011;23346;52.088;4.746;2022-07-24T08:15:16;3.90;;;1.80;;
37495;SDS011;23346;52.088;4.746;2022-07-24T08:17:42;1.80;;;1.27;;
37495;SDS011;23346;52.088;4.746;2022-07-24T08:20:08;1.63;;;1.17;;
37495;SDS011;23346;52.088;4.746;2022-07-24T08:22:35;3.15;;;1.52;;
37495;SDS011;23346;52.088;4.746;2022-07-24T08:25:01;6.68;;;2.10;;
37495;SDS011;23346;52.088;4.746;2022-07-24T08:27:27;3.05;;;1.58;;
37495;SDS011;23346;52.088;4.746;2022-07-24T08:29:53;3.20;;;1.40;;
37495;SDS011;23346;52.088;4.746;2022-07-24T08:32:19;2.60;;;1.73;;
37495;SDS011;23346;52.088;4.746;2022-07-24T08:34:45;4.95;;;1.50;;
37495;SDS011;23346;52.088;4.746;2022-07-24T08:37:11;2.97;;;1.90;;
37495;SDS011;23346;52.088;4.746;2022-07-24T08:39:37;5.53;;;1.85;;
37495;SDS011;23346;52.088;4.746;2022-07-24T08:42:03;3.58;;;1.40;;
37495;SDS011;23346;52.088;4.746;2022-07-24T08:44:29;2.83;;;1.25;;
37495;SDS011;23346;52.088;4.746;2022-07-24T08:46:55;2.60;;;1.40;;
37495;SDS011;23346;52.088;4.746;2022-07-24T08:49:23;1.90;;;1.30;;
37495;SDS011;23346;52.088;4.746;2022-07-24T08:51:51;1.98;;;1.02;;
37495;SDS011;23346;52.088;4.746;2022-07-24T08:54:17;3.58;;;1.10;;
37495;SDS011;23346;52.088;4.746;2022-07-24T08:56:44;4.75;;;1.65;;
37495;SDS011;23346;52.088;4.746;2022-07-24T08:59:17;4.90;;;1.50;;
37495;SDS011;23346;52.088;4.746;2022-07-24T09:01:43;2.88;;;1.10;;
37495;SDS011;23346;52.088;4.746;2022-07-24T09:06:57;1.63;;;1.25;;
37495;SDS011;23346;52.088;4.746;2022-07-24T09:09:23;2.97;;;1.40;;
37495;SDS011;23346;52.088;4.746;2022-07-24T09:11:49;3.92;;;1.60;;
37495;SDS011;23346;52.088;4.746;2022-07-24T09:14:16;2.03;;;1.40;;
37495;SDS011;23346;52.088;4.746;2022-07-24T09:17:00;3.95;;;1.40;;
37495;SDS011;23346;52.088;4.746;2022-07-24T09:19:26;4.72;;;1.35;;
37495;SDS011;23346;52.088;4.746;2022-07-24T09:21:52;2.70;;;1.35;;
37495;SDS011;23346;52.088;4.746;2022-07-24T09:24:19;2.10;;;1.40;;
37495;SDS011;23346;52.088;4.746;2022-07-24T09:26:50;3.53;;;1.25;;
37495;SDS011;23346;52.088;4.746;2022-07-24T09:29:17;2.42;;;1.40;;
37495;SDS011;23346;52.088;4.746;2022-07-24T09:34:18;2.53;;;1.35;;
37495;SDS011;23346;52.088;4.746;2022-07-24T09:36:54;2.40;;;1.55;;
37495;SDS011;23346;52.088;4.746;2022-07-24T09:39:20;2.33;;;1.58;;
37495;SDS011;23346;52.088;4.746;2022-07-24T09:41:54;4.80;;;1.40;;
37495;SDS011;23346;52.088;4.746;2022-07-24T09:44:20;2.33;;;1.23;;
37495;SDS011;23346;52.088;4.746;2022-07-24T09:46:54;2.60;;;1.40;;
37495;SDS011;23346;52.088;4.746;2022-07-24T09:49:21;2.45;;;1.27;;
37495;SDS011;23346;52.088;4.746;2022-07-24T09:52:10;3.00;;;1.30;;
37495;SDS011;23346;52.088;4.746;2022-07-24T09:54:38;2.45;;;1.40;;
37495;SDS011;23346;52.088;4.746;2022-07-24T09:59:50;3.03;;;1.40;;
37495;SDS011;23346;52.088;4.746;2022-07-24T10:02:17;3.85;;;1.30;;
37495;SDS011;23346;52.088;4.746;2022-07-24T10:04:44;3.50;;;1.20;;
37495;SDS011;23346;52.088;4.746;2022-07-24T10:07:11;6.63;;;1.70;;
37495;SDS011;23346;52.088;4.746;2022-07-24T10:09:40;10.23;;;1.40;;
37495;SDS011;23346;52.088;4.746;2022-07-24T10:12:06;3.90;;;1.38;;
37495;SDS011;23346;52.088;4.746;2022-07-24T10:14:36;3.25;;;1.27;;
37495;SDS011;23346;52.088;4.746;2022-07-24T10:17:05;3.83;;;1.30;;
37495;SDS011;23346;52.088;4.746;2022-07-24T10:19:38;1.50;;;0.98;;
37495;SDS011;23346;52.088;4.746;2022-07-24T10:22:09;1.98;;;1.10;;
37495;SDS011;23346;52.088;4.746;2022-07-24T10:29:56;3.70;;;1.15;;
37495;SDS011;23346;52.088;4.746;2022-07-24T10:32:23;2.33;;;1.17;;
37495;SDS011;23346;52.088;4.746;2022-07-24T10:37:26;3.33;;;1.10;;
37495;SDS011;23346;52.088;4.746;2022-07-24T10:45:23;3.97;;;1.75;;
37495;SDS011;23346;52.088;4.746;2022-07-24T10:47:53;1.45;;;1.00;;
37495;SDS011;23346;52.088;4.746;2022-07-24T10:50:20;1.20;;;0.85;;
37495;SDS011;23346;52.088;4.746;2022-07-24T10:52:47;1.80;;;1.10;;
37495;SDS011;23346;52.088;4.746;2022-07-24T10:57:52;1.40;;;1.00;;
37495;SDS011;23346;52.088;4.746;2022-07-24T11:00:23;1.60;;;1.10;;
37495;SDS011;23346;52.088;4.746;2022-07-24T11:02:59;3.45;;;1.30;;
37495;SDS011;23346;52.088;4.746;2022-07-24T11:10:46;1.98;;;1.00;;
37495;SDS011;23346;52.088;4.746;2022-07-24T11:18:38;1.75;;;1.08;;
37495;SDS011;23346;52.088;4.746;2022-07-24T11:21:05;2.03;;;1.20;;
37495;SDS011;23346;52.088;4.746;2022-07-24T11:23:31;4.13;;;1.45;;
37495;SDS011;23346;52.088;4.746;2022-07-24T11:31:30;1.88;;;1.23;;
37495;SDS011;23346;52.088;4.746;2022-07-24T11:33:57;2.85;;;1.40;;
37495;SDS011;23346;52.088;4.746;2022-07-24T11:36:24;3.88;;;1.42;;
37495;SDS011;23346;52.088;4.746;2022-07-24T11:38:50;9.18;;;1.63;;
37495;SDS011;23346;52.088;4.746;2022-07-24T11:41:17;5.03;;;1.55;;
37495;SDS011;23346;52.088;4.746;2022-07-24T11:43:52;3.83;;;1.27;;
37495;SDS011;23346;52.088;4.746;2022-07-24T11:49:04;4.07;;;1.55;;
37495;SDS011;23346;52.088;4.746;2022-07-24T11:51:30;3.95;;;1.30;;
37495;SDS011;23346;52.088;4.746;2022-07-24T11:53:56;2.75;;;1.50;;
37495;SDS011;23346;52.088;4.746;2022-07-24T11:56:22;3.20;;;1.48;;
37495;SDS011;23346;52.088;4.746;2022-07-24T11:58:49;1.83;;;1.23;;
37495;SDS011;23346;52.088;4.746;2022-07-24T12:01:21;4.35;;;1.30;;
37495;SDS011;23346;52.088;4.746;2022-07-24T12:03:48;1.77;;;1.08;;
37495;SDS011;23346;52.088;4.746;2022-07-24T12:06:14;2.75;;;1.55;;
37495;SDS011;23346;52.088;4.746;2022-07-24T12:08:40;2.58;;;1.33;;
37495;SDS011;23346;52.088;4.746;2022-07-24T12:11:06;2.47;;;1.17;;
37495;SDS011;23346;52.088;4.746;2022-07-24T12:13:32;2.53;;;1.50;;
37495;SDS011;23346;52.088;4.746;2022-07-24T12:15:58;1.55;;;1.05;;
37495;SDS011;23346;52.088;4.746;2022-07-24T12:18:24;4.43;;;1.52;;
37495;SDS011;23346;52.088;4.746;2022-07-24T12:20:50;3.47;;;1.30;;
37495;SDS011;23346;52.088;4.746;2022-07-24T12:23:16;4.05;;;1.30;;
37495;SDS011;23346;52.088;4.746;2022-07-24T12:25:46;4.25;;;1.23;;
37495;SDS011;23346;52.088;4.746;2022-07-24T12:28:14;3.45;;;1.20;;
37495;SDS011;23346;52.088;4.746;2022-07-24T12:30:41;3.08;;;1.20;;
37495;SDS011;23346;52.088;4.746;2022-07-24T12:33:09;1.58;;;0.98;;
37495;SDS011;23346;52.088;4.746;2022-07-24T12:35:56;3.65;;;1.30;;
37495;SDS011;23346;52.088;4.746;2022-07-24T12:38:32;5.50;;;1.45;;
37495;SDS011;23346;52.088;4.746;2022-07-24T12:43:32;4.07;;;1.27;;
37495;SDS011;23346;52.088;4.746;2022-07-24T12:46:07;2.45;;;1.50;;
37495;SDS011;23346;52.088;4.746;2022-07-24T12:48:34;2.10;;;1.23;;
37495;SDS011;23346;52.088;4.746;2022-07-24T12:51:03;2.90;;;1.10;;
37495;SDS011;23346;52.088;4.746;2022-07-24T12:53:30;3.50;;;1.27;;
37495;SDS011;23346;52.088;4.746;2022-07-24T12:56:03;1.50;;;1.10;;
37495;SDS011;23346;52.088;4.746;2022-07-24T12:58:29;3.53;;;1.20;;
37495;SDS011;23346;52.088;4.746;2022-07-24T13:00:56;4.40;;;1.27;;
37495;SDS011;23346;52.088;4.746;2022-07-24T13:03:25;3.38;;;1.15;;
37495;SDS011;23346;52.088;4.746;2022-07-24T13:05:55;2.10;;;1.08;;
37495;SDS011;23346;52.088;4.746;2022-07-24T13:08:21;1.70;;;1.17;;
37495;SDS011;23346;52.088;4.746;2022-07-24T13:10:47;1.67;;;1.10;;
37495;SDS011;23346;52.088;4.746;2022-07-24T13:13:13;3.38;;;0.85;;
37495;SDS011;23346;52.088;4.746;2022-07-24T13:15:39;3.20;;;1.10;;
37495;SDS011;23346;52.088;4.746;2022-07-24T13:18:05;1.88;;;1.10;;
37495;SDS011;23346;52.088;4.746;2022-07-24T13:20:31;2.05;;;1.10;;
37495;SDS011;23346;52.088;4.746;2022-07-24T13:22:57;1.20;;;1.00;;
37495;SDS011;23346;52.088;4.746;2022-07-24T13:25:23;2.05;;;1.00;;
37495;SDS011;23346;52.088;4.746;2022-07-24T13:27:49;2.92;;;1.10;;
37495;SDS011;23346;52.088;4.746;2022-07-24T13:30:15;1.67;;;1.15;;
37495;SDS011;23346;52.088;4.746;2022-07-24T13:32:41;3.22;;;1.30;;
37495;SDS011;23346;52.088;4.746;2022-07-24T13:35:08;1.83;;;1.00;;
37495;SDS011;23346;52.088;4.746;2022-07-24T13:37:34;4.72;;;1.10;;
37495;SDS011;23346;52.088;4.746;2022-07-24T13:40:00;3.17;;;1.00;;
37495;SDS011;23346;52.088;4.746;2022-07-24T13:42:28;2.50;;;1.15;;
37495;SDS011;23346;52.088;4.746;2022-07-24T13:44:54;2.47;;;1.40;;
37495;SDS011;23346;52.088;4.746;2022-07-24T13:47:20;2.88;;;1.15;;
37495;SDS011;23346;52.088;4.746;2022-07-24T13:49:46;2.75;;;1.27;;
37495;SDS011;23346;52.088;4.746;2022-07-24T13:52:12;3.22;;;1.13;;
37495;SDS011;23346;52.088;4.746;2022-07-24T13:54:39;4.18;;;1.10;;
37495;SDS011;23346;52.088;4.746;2022-07-24T13:57:06;3.67;;;1.30;;
37495;SDS011;23346;52.088;4.746;2022-07-24T13:59:32;2.47;;;1.20;;
37495;SDS011;23346;52.088;4.746;2022-07-24T14:01:58;4.68;;;1.20;;
37495;SDS011;23346;52.088;4.746;2022-07-24T14:04:24;3.58;;;1.00;;
37495;SDS011;23346;52.088;4.746;2022-07-24T14:06:51;3.05;;;1.20;;
37495;SDS011;23346;52.088;4.746;2022-07-24T14:09:17;3.25;;;1.15;;
37495;SDS011;23346;52.088;4.746;2022-07-24T14:11:43;8.02;;;1.77;;
37495;SDS011;23346;52.088;4.746;2022-07-24T14:14:09;2.58;;;0.95;;
37495;SDS011;23346;52.088;4.746;2022-07-24T14:16:35;2.13;;;1.25;;
37495;SDS011;23346;52.088;4.746;2022-07-24T14:19:02;1.65;;;1.17;;
37495;SDS011;23346;52.088;4.746;2022-07-24T14:21:28;2.03;;;1.20;;
37495;SDS011;23346;52.088;4.746;2022-07-24T14:23:55;4.57;;;1.23;;
37495;SDS011;23346;52.088;4.746;2022-07-24T14:26:21;5.57;;;1.20;;
37495;SDS011;23346;52.088;4.746;2022-07-24T14:28:47;3.17;;;1.10;;
37495;SDS011;23346;52.088;4.746;2022-07-24T14:31:13;3.50;;;1.13;;
37495;SDS011;23346;52.088;4.746;2022-07-24T14:33:39;2.45;;;1.40;;
37495;SDS011;23346;52.088;4.746;2022-07-24T14:36:05;2.80;;;1.35;;
37495;SDS011;23346;52.088;4.746;2022-07-24T14:38:31;1.50;;;1.08;;
37495;SDS011;23346;52.088;4.746;2022-07-24T14:40:57;4.65;;;1.45;;
37495;SDS011;23346;52.088;4.746;2022-07-24T14:43:23;1.55;;;0.95;;
37495;SDS011;23346;52.088;4.746;2022-07-24T14:45:49;2.25;;;1.20;;
37495;SDS011;23346;52.088;4.746;2022-07-24T14:48:15;2.83;;;1.20;;
37495;SDS011;23346;52.088;4.746;2022-07-24T14:50:41;2.30;;;1.10;;
37495;SDS011;23346;52.088;4.746;2022-07-24T14:53:07;1.83;;;1.00;;
37495;SDS011;23346;52.088;4.746;2022-07-24T14:55:33;6.10;;;1.33;;
37495;SDS011;23346;52.088;4.746;2022-07-24T14:57:59;3.05;;;1.00;;
37495;SDS011;23346;52.088;4.746;2022-07-24T15:00:28;3.30;;;1.10;;
37495;SDS011;23346;52.088;4.746;2022-07-24T15:02:54;1.15;;;0.90;;
37495;SDS011;23346;52.088;4.746;2022-07-24T15:05:20;2.03;;;1.23;;
37495;SDS011;23346;52.088;4.746;2022-07-24T15:07:46;3.58;;;0.90;;
37495;SDS011;23346;52.088;4.746;2022-07-24T15:10:12;4.40;;;2.13;;
37495;SDS011;23346;52.088;4.746;2022-07-24T15:12:38;3.47;;;1.05;;
37495;SDS011;23346;52.088;4.746;2022-07-24T15:15:04;2.38;;;1.20;;
37495;SDS011;23346;52.088;4.746;2022-07-24T15:17:30;1.58;;;1.00;;
37495;SDS011;23346;52.088;4.746;2022-07-24T15:19:56;5.75;;;4.05;;